Moyer Aviation Incorporated

Pocono Mountains Airport

188 Airport Drive. Tobyhanna, PA 18466 

P: 570-839-7161
800-321-5890
F: 570-839-7162

Weather

Weather

Pocono Weather

KMPO 210353Z AUTO 12006KT 10SM CLR 16/13 A3014 RMK AO2 SLP196 T01560133

Allentown Weather

KABE 210351Z 13005KT 10SM CLR 22/14 A3010 RMK AO2 SLP189 T02170144

Wilkes-Barre Weather

KAVP 210354Z 12005KT 10SM CLR 19/13 A3010 RMK AO2 SLP183 T01940133


* required field

Contact Us